Manhattan Beach, Minnesota
Current Conditions -  °F | °C
As of 10:13 AM on Monday 24 Nov 2014 (Local Time) from KPWC Reporting Station
Light Snow Light Snow  
Wind Chill:   Ceiling: 1900
Heat Index: 16°   Visibility: 3mi
Dew Point: 10°   Wind: 13mph
Humidity: 79%   Direction: 320°NW
Pressure: 29.54"   Gusts: 21mph
Location:  46.7336°N, 94.1401°W
Report Text: KPWC 241613Z AUTO 32011G18KT 3SM -SN BKN019 OVC060 M09/M12 A2954 RMK AO2
Loading
Personal Weather Stations






























Interactive Weather Map New forecast layout! Learn more

10-Day Weather Forecast

Advertisements
Track Severe Weather on mobile